Time;durP1;ratioP1;P1;durP2;ratioP2;P2;SDS_P1;SDS_P2;PMS_P1;PMS_P2;Temp;Humidity;BMP_temperature;BMP_pressure;BME280_temperature;BME280_humidity;BME280_pressure;Samples;Min_cycle;Max_cycle;Signal;HPM_P1;HPM_P2
2022/05/26 00:01:16;;;;;;;0.90;0.60;;;;;;;;;;1798451;78;26313;-55
2022/05/26 00:03:44;;;;;;;0.80;0.80;;;;;;;;;;1799756;78;26345;-55
2022/05/26 00:06:13;;;;;;;0.80;0.80;;;;;;;;;;1797482;78;26297;-58
2022/05/26 00:08:41;;;;;;;1.65;0.80;;;;;;;;;;1793933;78;26270;-56
2022/05/26 00:11:10;;;;;;;1.98;0.85;;;;;;;;;;1799686;78;26317;-52
2022/05/26 00:13:38;;;;;;;0.65;0.65;;;;;;;;;;1798936;78;26305;-57
2022/05/26 00:16:06;;;;;;;1.07;1.00;;;;;;;;;;1797888;78;26827;-55
2022/05/26 00:18:33;;;;;;;0.60;0.60;;;;;;;;;;1799465;78;26301;-56
2022/05/26 00:21:01;;;;;;;0.78;0.78;;;;;;;;;;1800641;78;26811;-54
2022/05/26 00:23:29;;;;;;;1.02;0.80;;;;;;;;;;1797023;78;26278;-55
2022/05/26 00:25:56;;;;;;;0.80;0.80;;;;;;;;;;1795299;79;26356;-53
2022/05/26 00:28:23;;;;;;;2.00;0.80;;;;;;;;;;1793386;78;26213;-55
2022/05/26 00:30:53;;;;;;;0.78;0.62;;;;;;;;;;1801194;78;26820;-52
2022/05/26 00:33:20;;;;;;;0.72;0.72;;;;;;;;;;1789134;78;26356;-50
2022/05/26 00:35:49;;;;;;;0.75;0.75;;;;;;;;;;1799762;78;26293;-57
2022/05/26 00:38:18;;;;;;;0.82;0.80;;;;;;;;;;1807459;78;26274;-51
2022/05/26 00:40:46;;;;;;;0.60;0.60;;;;;;;;;;1800860;78;26293;-57
2022/05/26 00:43:13;;;;;;;0.78;0.78;;;;;;;;;;1799518;78;26286;-55
2022/05/26 00:45:54;;;;;;;0.70;0.70;;;;;;;;;;1798738;78;26345;-57
2022/05/26 00:48:23;;;;;;;0.80;0.80;;;;;;;;;;1800866;78;26313;-53
2022/05/26 00:50:52;;;;;;;0.80;0.72;;;;;;;;;;1800957;78;26693;-54
2022/05/26 00:53:21;;;;;;;0.70;0.70;;;;;;;;;;1797924;78;26341;-56
2022/05/26 00:55:53;;;;;;;0.60;0.60;;;;;;;;;;1788067;78;26298;-54
2022/05/26 00:58:21;;;;;;;0.60;0.60;;;;;;;;;;1801820;78;26301;-53
2022/05/26 01:00:49;;;;;;;0.68;0.68;;;;;;;;;;1799153;78;26266;-57
2022/05/26 01:03:18;;;;;;;0.65;0.60;;;;;;;;;;1800867;79;26334;-55
2022/05/26 01:05:47;;;;;;;0.70;0.70;;;;;;;;;;1792409;79;26324;-56
2022/05/26 01:08:15;;;;;;;0.70;0.70;;;;;;;;;;1789343;76;26318;-51
2022/05/26 01:10:43;;;;;;;0.70;0.70;;;;;;;;;;1784219;78;26820;-56
2022/05/26 01:13:11;;;;;;;1.67;0.70;;;;;;;;;;1799152;78;26908;-57
2022/05/26 01:15:39;;;;;;;0.60;0.60;;;;;;;;;;1792606;78;26340;-48
2022/05/26 01:18:24;;;;;;;0.80;0.80;;;;;;;;;;1795688;78;26305;-56
2022/05/26 01:20:56;;;;;;;0.70;0.70;;;;;;;;;;1801639;78;26642;-54
2022/05/26 01:23:28;;;;;;;1.65;0.62;;;;;;;;;;1795268;78;26369;-51
2022/05/26 01:25:59;;;;;;;0.70;0.70;;;;;;;;;;1794732;78;26706;-57
2022/05/26 01:28:34;;;;;;;0.70;0.70;;;;;;;;;;1794236;78;26762;-56
2022/05/26 01:31:20;;;;;;;0.65;0.65;;;;;;;;;;1794555;78;26316;-54
2022/05/26 01:33:49;;;;;;;0.70;0.70;;;;;;;;;;1795262;78;26754;-54
2022/05/26 01:36:27;;;;;;;0.65;0.65;;;;;;;;;;1800485;78;26339;-56
2022/05/26 01:39:07;;;;;;;0.68;0.68;;;;;;;;;;1788700;78;26349;-55
2022/05/26 01:41:36;;;;;;;0.60;0.60;;;;;;;;;;1792572;78;26723;-51
2022/05/26 01:44:11;;;;;;;0.62;0.62;;;;;;;;;;1809135;78;26289;-49
2022/05/26 01:46:45;;;;;;;1.17;0.90;;;;;;;;;;1798468;78;26828;-52
2022/05/26 01:49:14;;;;;;;0.75;0.50;;;;;;;;;;1788649;78;27006;-54
2022/05/26 01:51:43;;;;;;;0.50;0.50;;;;;;;;;;1794448;78;26721;-52
2022/05/26 01:54:12;;;;;;;0.60;0.60;;;;;;;;;;1794275;78;26739;-53
2022/05/26 01:56:46;;;;;;;0.62;0.62;;;;;;;;;;1789813;78;26318;-54
2022/05/26 01:59:18;;;;;;;0.60;0.60;;;;;;;;;;1732854;78;26313;-54
2022/05/26 02:01:50;;;;;;;0.50;0.50;;;;;;;;;;1794381;78;26361;-52
2022/05/26 02:04:18;;;;;;;0.90;0.68;;;;;;;;;;1799932;78;26754;-55
2022/05/26 02:06:47;;;;;;;0.70;0.70;;;;;;;;;;1791357;78;26297;-49
2022/05/26 02:09:16;;;;;;;0.80;0.68;;;;;;;;;;1797094;78;26657;-54
2022/05/26 02:11:51;;;;;;;0.60;0.60;;;;;;;;;;1808281;78;26727;-57
2022/05/26 02:14:22;;;;;;;0.50;0.50;;;;;;;;;;1783504;78;26721;-53
2022/05/26 02:16:51;;;;;;;0.70;0.70;;;;;;;;;;1800173;78;26301;-57
2022/05/26 02:19:28;;;;;;;0.50;0.50;;;;;;;;;;1817716;78;26379;-52
2022/05/26 02:22:06;;;;;;;0.60;0.60;;;;;;;;;;1809559;78;26322;-54
2022/05/26 02:24:37;;;;;;;0.80;0.60;;;;;;;;;;1803374;78;26301;-54
2022/05/26 02:27:06;;;;;;;0.55;0.55;;;;;;;;;;1801235;78;26291;-52
2022/05/26 02:29:52;;;;;;;0.60;0.60;;;;;;;;;;1809853;78;26745;-54
2022/05/26 02:32:20;;;;;;;0.70;0.50;;;;;;;;;;1802780;78;26320;-54
2022/05/26 02:34:49;;;;;;;0.60;0.60;;;;;;;;;;1810981;78;26666;-49
2022/05/26 02:37:17;;;;;;;0.50;0.50;;;;;;;;;;1813014;78;26316;-53
2022/05/26 02:39:45;;;;;;;0.90;0.68;;;;;;;;;;1796739;79;26857;-53
2022/05/26 02:42:12;;;;;;;1.15;0.82;;;;;;;;;;1800238;79;26895;-50
2022/05/26 02:44:41;;;;;;;0.70;0.70;;;;;;;;;;1800530;79;26785;-53
2022/05/26 02:47:10;;;;;;;0.57;0.57;;;;;;;;;;1792870;78;26876;-57
2022/05/26 02:49:42;;;;;;;0.57;0.57;;;;;;;;;;1797189;79;26793;-55
2022/05/26 02:52:13;;;;;;;0.60;0.60;;;;;;;;;;1799036;79;26278;-53
2022/05/26 02:54:57;;;;;;;0.70;0.70;;;;;;;;;;1781783;79;26273;-52
2022/05/26 02:57:41;;;;;;;0.40;0.40;;;;;;;;;;1798842;79;26437;-54
2022/05/26 03:00:10;;;;;;;0.72;0.72;;;;;;;;;;1793365;78;26760;-57
2022/05/26 03:02:48;;;;;;;0.57;0.57;;;;;;;;;;1807644;78;26321;-56
2022/05/26 03:05:35;;;;;;;0.60;0.60;;;;;;;;;;1786297;78;26316;-52
2022/05/26 03:08:04;;;;;;;0.70;0.70;;;;;;;;;;1799662;78;26711;-55
2022/05/26 03:10:33;;;;;;;0.60;0.60;;;;;;;;;;1787365;79;26863;-52
2022/05/26 03:13:00;;;;;;;0.98;0.70;;;;;;;;;;1795333;78;26289;-48
2022/05/26 03:15:29;;;;;;;0.60;0.60;;;;;;;;;;1795045;80;26382;-56
2022/05/26 03:17:57;;;;;;;0.65;0.65;;;;;;;;;;1795235;80;26780;-53
2022/05/26 03:20:25;;;;;;;0.98;0.85;;;;;;;;;;1794193;78;26329;-57
2022/05/26 03:22:52;;;;;;;0.50;0.50;;;;;;;;;;1797495;78;26869;-58
2022/05/26 03:25:19;;;;;;;0.60;0.60;;;;;;;;;;1793429;78;26379;-57
2022/05/26 03:27:47;;;;;;;0.60;0.60;;;;;;;;;;1786782;79;26270;-56
2022/05/26 03:30:14;;;;;;;1.92;0.60;;;;;;;;;;1794328;78;26297;-56
2022/05/26 03:32:46;;;;;;;0.85;0.72;;;;;;;;;;1794870;78;26918;-53
2022/05/26 03:40:56;;;;;;;0.60;0.60;;;;;;;;;;1794502;78;26380;-58
2022/05/26 03:43:25;;;;;;;0.68;0.60;;;;;;;;;;1807351;78;26226;-57
2022/05/26 03:45:53;;;;;;;0.60;0.50;;;;;;;;;;1802234;78;26282;-51
2022/05/26 03:48:20;;;;;;;1.95;0.55;;;;;;;;;;1780879;78;26293;-54
2022/05/26 03:50:47;;;;;;;2.12;0.68;;;;;;;;;;1797869;78;26836;-53
2022/05/26 03:53:14;;;;;;;0.57;0.57;;;;;;;;;;1793891;78;26758;-52
2022/05/26 03:55:42;;;;;;;0.45;0.45;;;;;;;;;;1794057;78;26294;-52
2022/05/26 03:58:09;;;;;;;0.60;0.60;;;;;;;;;;1794795;78;26222;-55
2022/05/26 04:00:36;;;;;;;0.50;0.50;;;;;;;;;;1793818;78;26313;-57
2022/05/26 04:03:04;;;;;;;0.53;0.53;;;;;;;;;;1793207;78;26282;-53
2022/05/26 04:05:31;;;;;;;0.70;0.70;;;;;;;;;;1797432;78;26736;-51
2022/05/26 04:07:59;;;;;;;0.60;0.60;;;;;;;;;;1806112;78;26293;-51
2022/05/26 04:10:26;;;;;;;0.53;0.53;;;;;;;;;;1807523;78;26408;-54
2022/05/26 04:12:55;;;;;;;0.40;0.40;;;;;;;;;;1793461;78;26384;-48
2022/05/26 04:15:23;;;;;;;0.57;0.50;;;;;;;;;;1792422;78;26984;-58
2022/05/26 04:17:51;;;;;;;0.50;0.50;;;;;;;;;;1805860;78;26250;-58
2022/05/26 04:20:20;;;;;;;0.40;0.40;;;;;;;;;;1803258;78;26710;-53
2022/05/26 04:22:49;;;;;;;1.67;0.60;;;;;;;;;;1803199;78;26351;-57
2022/05/26 04:25:18;;;;;;;0.80;0.65;;;;;;;;;;1803580;78;26312;-50
2022/05/26 04:27:45;;;;;;;1.12;0.60;;;;;;;;;;1803145;78;26278;-49
2022/05/26 04:30:13;;;;;;;1.20;0.60;;;;;;;;;;1794054;78;26292;-57
2022/05/26 04:32:41;;;;;;;0.60;0.60;;;;;;;;;;1787612;78;26355;-49
2022/05/26 04:35:09;;;;;;;0.60;0.60;;;;;;;;;;1805145;78;26316;-53
2022/05/26 04:37:37;;;;;;;0.60;0.60;;;;;;;;;;1800323;78;26804;-56
2022/05/26 04:40:06;;;;;;;0.57;0.50;;;;;;;;;;1792341;80;26380;-53
2022/05/26 04:42:33;;;;;;;0.72;0.60;;;;;;;;;;1794260;80;26800;-55
2022/05/26 04:45:01;;;;;;;0.60;0.60;;;;;;;;;;1796028;78;26802;-54
2022/05/26 04:47:28;;;;;;;0.60;0.60;;;;;;;;;;1798640;78;26302;-52
2022/05/26 04:49:56;;;;;;;0.47;0.47;;;;;;;;;;1797433;78;26309;-52
2022/05/26 04:52:24;;;;;;;0.57;0.57;;;;;;;;;;1795129;78;26318;-52
2022/05/26 04:54:52;;;;;;;0.65;0.65;;;;;;;;;;1795156;78;27489;-48
2022/05/26 04:57:21;;;;;;;0.60;0.60;;;;;;;;;;1790960;80;26305;-49
2022/05/26 04:59:49;;;;;;;1.20;0.50;;;;;;;;;;1796644;78;26348;-46
2022/05/26 05:02:17;;;;;;;0.60;0.60;;;;;;;;;;1789165;78;26312;-50
2022/05/26 05:04:48;;;;;;;7.70;0.70;;;;;;;;;;1780134;80;26827;-54
2022/05/26 05:07:15;;;;;;;0.60;0.60;;;;;;;;;;1794120;78;26380;-47
2022/05/26 05:09:43;;;;;;;1.95;0.60;;;;;;;;;;1811551;78;26361;-52
2022/05/26 05:12:12;;;;;;;0.53;0.53;;;;;;;;;;1794452;80;26231;-50
2022/05/26 05:14:41;;;;;;;0.65;0.57;;;;;;;;;;1793448;78;26302;-51
2022/05/26 05:17:09;;;;;;;0.50;0.50;;;;;;;;;;1794523;78;26352;-47
2022/05/26 05:19:37;;;;;;;0.50;0.50;;;;;;;;;;1794659;78;26321;-48
2022/05/26 05:22:06;;;;;;;0.50;0.47;;;;;;;;;;1794901;78;26390;-47
2022/05/26 05:24:37;;;;;;;0.60;0.60;;;;;;;;;;1797588;78;26305;-51
2022/05/26 05:27:06;;;;;;;0.50;0.50;;;;;;;;;;1785370;78;26391;-51
2022/05/26 05:29:35;;;;;;;0.50;0.50;;;;;;;;;;1788231;79;26313;-54
2022/05/26 05:32:04;;;;;;;0.40;0.40;;;;;;;;;;1787179;78;26242;-53
2022/05/26 05:34:35;;;;;;;1.42;0.50;;;;;;;;;;1803289;78;26274;-49
2022/05/26 05:37:03;;;;;;;0.40;0.40;;;;;;;;;;1792507;78;26340;-54
2022/05/26 05:39:30;;;;;;;0.53;0.53;;;;;;;;;;1792208;78;26522;-55
2022/05/26 05:41:59;;;;;;;0.62;0.47;;;;;;;;;;1795623;78;26837;-52
2022/05/26 05:44:27;;;;;;;0.30;0.30;;;;;;;;;;1793574;78;26447;-53
2022/05/26 05:46:57;;;;;;;0.62;0.50;;;;;;;;;;1794766;78;26391;-54
2022/05/26 05:49:28;;;;;;;0.60;0.60;;;;;;;;;;1794371;78;26294;-54
2022/05/26 05:51:56;;;;;;;0.50;0.50;;;;;;;;;;1792822;78;26310;-56
2022/05/26 05:54:23;;;;;;;0.50;0.50;;;;;;;;;;1793954;78;26246;-56
2022/05/26 05:56:51;;;;;;;0.60;0.60;;;;;;;;;;1793946;78;26274;-53
2022/05/26 05:59:18;;;;;;;0.40;0.40;;;;;;;;;;1795200;78;26282;-51
2022/05/26 06:01:45;;;;;;;0.50;0.50;;;;;;;;;;1792180;78;26305;-55
2022/05/26 06:04:12;;;;;;;0.50;0.50;;;;;;;;;;1792005;78;26286;-56
2022/05/26 06:06:41;;;;;;;0.98;0.47;;;;;;;;;;1791606;78;26325;-52
2022/05/26 06:09:09;;;;;;;0.40;0.40;;;;;;;;;;1791723;78;26273;-55
2022/05/26 06:11:36;;;;;;;1.30;0.50;;;;;;;;;;1793256;78;26384;-53
2022/05/26 06:14:04;;;;;;;0.40;0.40;;;;;;;;;;1795630;78;26321;-51
2022/05/26 06:16:32;;;;;;;0.50;0.47;;;;;;;;;;1794557;78;26297;-54
2022/05/26 06:19:00;;;;;;;0.70;0.37;;;;;;;;;;1794973;78;26384;-51
2022/05/26 06:21:27;;;;;;;0.50;0.50;;;;;;;;;;1793127;77;26900;-49
2022/05/26 06:24:00;;;;;;;0.42;0.42;;;;;;;;;;1796544;78;26218;-50
2022/05/26 06:26:26;;;;;;;1.75;0.50;;;;;;;;;;1793524;78;26356;-48
2022/05/26 06:31:39;;;;;;;3.10;0.60;;;;;;;;;;1812258;78;26346;-50
2022/05/26 06:39:37;;;;;;;3.20;0.70;;;;;;;;;;1792802;78;26895;-52
2022/05/26 06:42:07;;;;;;;0.50;0.50;;;;;;;;;;1793887;78;26771;-53
2022/05/26 06:44:38;;;;;;;4.65;0.50;;;;;;;;;;1795403;78;26697;-47
2022/05/26 06:47:19;;;;;;;1.30;0.50;;;;;;;;;;1790617;78;26613;-54
2022/05/26 06:49:47;;;;;;;1.85;0.47;;;;;;;;;;1793028;78;26324;-53
2022/05/26 06:52:15;;;;;;;3.50;0.50;;;;;;;;;;1793668;78;26912;-50
2022/05/26 06:54:44;;;;;;;2.08;0.50;;;;;;;;;;1793231;78;26859;-50
2022/05/26 06:57:12;;;;;;;3.98;0.95;;;;;;;;;;1792103;78;26278;-52
2022/05/26 06:59:39;;;;;;;1.12;0.47;;;;;;;;;;1794996;78;26418;-54
2022/05/26 07:02:09;;;;;;;0.40;0.40;;;;;;;;;;1794001;78;26294;-56
2022/05/26 07:04:38;;;;;;;3.27;0.82;;;;;;;;;;1794349;78;26290;-51
2022/05/26 07:07:05;;;;;;;0.60;0.60;;;;;;;;;;1797910;78;26322;-48
2022/05/26 07:09:33;;;;;;;1.80;0.60;;;;;;;;;;1790331;78;26384;-54
2022/05/26 07:12:00;;;;;;;1.12;0.60;;;;;;;;;;1796407;78;26419;-54
2022/05/26 07:14:28;;;;;;;1.00;0.50;;;;;;;;;;1802751;78;26348;-51
2022/05/26 07:16:55;;;;;;;3.25;0.70;;;;;;;;;;1803651;78;26335;-52
2022/05/26 07:19:23;;;;;;;1.35;0.55;;;;;;;;;;1797940;78;26278;-51
2022/05/26 07:21:50;;;;;;;6.33;1.10;;;;;;;;;;1798756;78;26483;-57
2022/05/26 07:24:19;;;;;;;2.10;0.80;;;;;;;;;;1802038;78;26404;-55
2022/05/26 07:26:47;;;;;;;5.53;0.72;;;;;;;;;;1798906;78;26301;-48
2022/05/26 07:29:15;;;;;;;3.77;0.70;;;;;;;;;;1800349;78;26364;-57
2022/05/26 07:31:42;;;;;;;7.55;0.90;;;;;;;;;;1799840;78;27591;-49
2022/05/26 07:34:10;;;;;;;11.85;1.05;;;;;;;;;;1800682;78;26278;-45
2022/05/26 07:42:12;;;;;;;2.15;0.93;;;;;;;;;;1800732;78;26825;-56
2022/05/26 07:44:40;;;;;;;4.10;0.90;;;;;;;;;;1801538;78;26285;-63
2022/05/26 07:47:08;;;;;;;5.22;0.90;;;;;;;;;;1799781;78;26599;-52
2022/05/26 07:49:37;;;;;;;5.30;0.80;;;;;;;;;;1800610;78;25744;-54
2022/05/26 07:52:05;;;;;;;4.47;0.80;;;;;;;;;;1793292;78;26923;-63
2022/05/26 07:54:33;;;;;;;4.85;0.80;;;;;;;;;;1798275;78;26391;-60
2022/05/26 07:57:01;;;;;;;4.47;0.80;;;;;;;;;;1799984;78;26301;-55
2022/05/26 07:59:29;;;;;;;9.53;1.25;;;;;;;;;;1799598;78;26588;-55
2022/05/26 08:01:56;;;;;;;1.55;0.68;;;;;;;;;;1796511;78;26289;-56
2022/05/26 08:04:23;;;;;;;3.20;1.00;;;;;;;;;;1794176;78;26410;-59
2022/05/26 08:06:51;;;;;;;5.58;0.78;;;;;;;;;;1798886;78;26296;-52
2022/05/26 08:09:20;;;;;;;1.10;0.53;;;;;;;;;;1797143;78;26997;-55
2022/05/26 08:11:47;;;;;;;1.67;0.70;;;;;;;;;;1789347;78;26326;-64
2022/05/26 08:14:14;;;;;;;2.02;0.60;;;;;;;;;;1771793;80;26378;-58
2022/05/26 08:16:42;;;;;;;2.17;0.62;;;;;;;;;;1765957;80;26324;-48
2022/05/26 08:19:10;;;;;;;1.67;0.60;;;;;;;;;;1775973;80;26831;-53
2022/05/26 08:21:37;;;;;;;4.08;0.80;;;;;;;;;;1769653;80;26945;-66
2022/05/26 08:24:05;;;;;;;1.25;0.47;;;;;;;;;;1767548;80;26800;-61
2022/05/26 08:26:33;;;;;;;5.22;0.88;;;;;;;;;;1764820;80;26883;-52
2022/05/26 08:29:00;;;;;;;3.37;0.80;;;;;;;;;;1767562;80;26413;-48
2022/05/26 08:31:28;;;;;;;2.30;0.80;;;;;;;;;;1766910;80;26318;-66
2022/05/26 08:33:55;;;;;;;0.82;0.60;;;;;;;;;;1770762;80;26903;-67
2022/05/26 08:36:24;;;;;;;1.80;0.68;;;;;;;;;;1765778;80;26273;-63
2022/05/26 08:38:52;;;;;;;4.67;1.00;;;;;;;;;;1772283;80;26394;-53
2022/05/26 08:41:21;;;;;;;3.37;0.75;;;;;;;;;;1767261;80;27484;-54
2022/05/26 08:43:50;;;;;;;1.10;0.70;;;;;;;;;;1770857;80;23428;-51
2022/05/26 08:46:22;;;;;;;1.67;0.70;;;;;;;;;;1769668;80;26367;-56
2022/05/26 08:48:48;;;;;;;1.10;0.72;;;;;;;;;;1763529;80;26338;-60
2022/05/26 08:51:22;;;;;;;1.25;0.57;;;;;;;;;;1771585;80;26404;-56
2022/05/26 08:53:51;;;;;;;4.05;0.72;;;;;;;;;;1765913;80;26312;-58
2022/05/26 08:56:20;;;;;;;1.32;0.62;;;;;;;;;;1761758;80;26410;-58
2022/05/26 08:58:48;;;;;;;3.70;0.62;;;;;;;;;;1765899;80;26320;-59
2022/05/26 09:01:16;;;;;;;1.98;0.88;;;;;;;;;;1776267;80;26393;-64
2022/05/26 09:03:44;;;;;;;1.00;0.70;;;;;;;;;;1775368;80;26766;-54
2022/05/26 09:06:13;;;;;;;1.32;0.78;;;;;;;;;;1766883;80;26367;-57
2022/05/26 09:14:38;;;;;;;3.47;0.70;;;;;;;;;;1765544;80;26894;-61
2022/05/26 09:17:06;;;;;;;1.35;0.70;;;;;;;;;;1773720;80;26304;-55
2022/05/26 09:19:48;;;;;;;2.20;0.60;;;;;;;;;;1763822;80;26249;-54
2022/05/26 09:22:26;;;;;;;2.45;0.80;;;;;;;;;;1764225;80;26324;-55
2022/05/26 09:24:53;;;;;;;2.12;0.60;;;;;;;;;;1752857;80;26387;-61
2022/05/26 09:27:28;;;;;;;0.80;0.80;;;;;;;;;;1769664;80;26258;-57
2022/05/26 09:29:56;;;;;;;1.77;0.68;;;;;;;;;;1767772;80;26360;-58
2022/05/26 09:32:26;;;;;;;2.87;0.80;;;;;;;;;;1770373;80;26311;-56
2022/05/26 09:35:07;;;;;;;0.65;0.65;;;;;;;;;;1771618;80;26379;-59
2022/05/26 09:37:39;;;;;;;1.02;0.90;;;;;;;;;;1770261;80;27039;-60
2022/05/26 09:40:20;;;;;;;1.98;0.70;;;;;;;;;;1765898;80;26559;-56
2022/05/26 09:42:52;;;;;;;2.33;0.75;;;;;;;;;;1778626;80;26827;-54
2022/05/26 09:45:20;;;;;;;2.30;0.90;;;;;;;;;;1772349;80;26342;-53
2022/05/26 09:47:53;;;;;;;2.33;0.80;;;;;;;;;;1755370;80;26378;-61
2022/05/26 09:50:38;;;;;;;2.60;0.78;;;;;;;;;;1764982;80;26362;-55
2022/05/26 09:53:06;;;;;;;0.72;0.70;;;;;;;;;;1765501;80;26353;-55
2022/05/26 09:55:44;;;;;;;4.62;0.98;;;;;;;;;;1769377;80;26382;-57
2022/05/26 09:58:13;;;;;;;1.55;0.80;;;;;;;;;;1766265;80;26339;-62
2022/05/26 10:00:41;;;;;;;5.95;0.90;;;;;;;;;;1770528;80;26355;-57
2022/05/26 10:03:10;;;;;;;1.00;0.78;;;;;;;;;;1773391;80;26319;-64
2022/05/26 10:05:51;;;;;;;0.80;0.70;;;;;;;;;;1751874;80;26334;-53
2022/05/26 10:08:29;;;;;;;2.72;0.75;;;;;;;;;;1687941;80;26321;-51
2022/05/26 10:11:04;;;;;;;2.98;1.32;;;;;;;;;;1773563;80;26292;-61
2022/05/26 10:13:33;;;;;;;4.12;0.70;;;;;;;;;;1782472;79;26336;-60
2022/05/26 10:16:18;;;;;;;0.95;0.60;;;;;;;;;;1801273;78;26278;-54
2022/05/26 10:18:50;;;;;;;1.87;0.70;;;;;;;;;;1802351;78;26371;-64
2022/05/26 10:21:31;;;;;;;1.12;0.65;;;;;;;;;;1804212;78;26333;-50
2022/05/26 10:24:06;;;;;;;8.83;0.88;;;;;;;;;;1798715;78;26652;-54
2022/05/26 10:26:35;;;;;;;8.23;1.20;;;;;;;;;;1795666;78;26796;-60
2022/05/26 10:29:06;;;;;;;3.67;1.00;;;;;;;;;;1797890;78;26754;-50
2022/05/26 10:31:52;;;;;;;13.22;2.05;;;;;;;;;;1804596;78;26309;-49
2022/05/26 10:34:24;;;;;;;1.10;0.60;;;;;;;;;;1802884;78;26963;-46
2022/05/26 10:36:52;;;;;;;1.12;0.75;;;;;;;;;;1800051;78;26299;-50
2022/05/26 10:39:21;;;;;;;3.05;0.70;;;;;;;;;;1800439;78;26286;-45
2022/05/26 10:41:53;;;;;;;1.12;0.57;;;;;;;;;;1802850;78;26303;-46
2022/05/26 10:44:27;;;;;;;1.30;0.60;;;;;;;;;;1803950;78;26253;-45
2022/05/26 10:46:59;;;;;;;0.72;0.70;;;;;;;;;;1813582;78;26349;-51
2022/05/26 10:49:28;;;;;;;0.82;0.70;;;;;;;;;;1803132;78;26772;-53
2022/05/26 10:51:57;;;;;;;2.12;0.80;;;;;;;;;;1794888;78;27427;-43
2022/05/26 10:54:28;;;;;;;0.70;0.70;;;;;;;;;;1803464;78;26959;-45
2022/05/26 10:56:59;;;;;;;0.88;0.78;;;;;;;;;;1809388;78;26290;-52
2022/05/26 10:59:28;;;;;;;0.98;0.70;;;;;;;;;;1802479;78;26677;-46
2022/05/26 11:01:59;;;;;;;1.02;0.62;;;;;;;;;;1802963;78;26368;-50
2022/05/26 11:04:34;;;;;;;0.78;0.78;;;;;;;;;;1803897;78;26309;-44
2022/05/26 11:07:03;;;;;;;2.90;0.90;;;;;;;;;;1797184;78;26945;-46
2022/05/26 11:09:40;;;;;;;1.10;0.80;;;;;;;;;;1803908;78;26825;-42
2022/05/26 11:12:12;;;;;;;1.37;0.93;;;;;;;;;;1799744;79;26738;-46
2022/05/26 11:17:40;;;;;;;1.27;0.80;;;;;;;;;;1810427;78;26337;-45
2022/05/26 11:20:13;;;;;;;1.50;0.93;;;;;;;;;;1794971;80;26317;-46
2022/05/26 11:22:45;;;;;;;1.27;0.70;;;;;;;;;;1786601;80;26805;-46
2022/05/26 11:25:10;;;;;;;0.90;0.70;;;;;;;;;;1784633;78;26297;-50
2022/05/26 11:27:39;;;;;;;0.60;0.60;;;;;;;;;;1792836;78;26728;-51
2022/05/26 11:36:07;;;;;;;0.75;0.70;;;;;;;;;;1794148;80;26308;-51
2022/05/26 11:38:21;;;;;;;0.90;0.60;;;;;;;;;;1793121;78;26942;-45
2022/05/26 11:40:50;;;;;;;1.67;0.70;;;;;;;;;;1795028;78;26387;-48
2022/05/26 11:43:24;;;;;;;0.62;0.62;;;;;;;;;;1792257;78;26359;-49
2022/05/26 11:45:52;;;;;;;1.42;0.75;;;;;;;;;;1802875;78;26275;-54
2022/05/26 11:48:33;;;;;;;2.00;0.65;;;;;;;;;;1808296;78;26328;-45
2022/05/26 11:51:05;;;;;;;0.53;0.53;;;;;;;;;;1800630;78;27392;-50
2022/05/26 11:53:34;;;;;;;0.45;0.45;;;;;;;;;;1774481;78;26729;-53
2022/05/26 11:56:08;;;;;;;0.88;0.60;;;;;;;;;;1793601;78;26375;-52
2022/05/26 11:58:33;;;;;;;0.72;0.60;;;;;;;;;;1793816;78;26338;-47
2022/05/26 12:01:17;;;;;;;0.68;0.68;;;;;;;;;;1791493;78;26329;-49
2022/05/26 12:03:49;;;;;;;0.50;0.50;;;;;;;;;;1790988;78;26301;-44
2022/05/26 12:06:17;;;;;;;0.35;0.35;;;;;;;;;;1764638;78;26282;-43
2022/05/26 12:08:55;;;;;;;3.52;0.62;;;;;;;;;;1797674;78;26312;-46
2022/05/26 12:11:24;;;;;;;3.30;0.70;;;;;;;;;;1794722;80;26407;-44
2022/05/26 12:13:59;;;;;;;0.42;0.42;;;;;;;;;;1777035;79;26293;-51
2022/05/26 12:16:27;;;;;;;0.57;0.57;;;;;;;;;;1794835;78;26818;-49
2022/05/26 12:19:02;;;;;;;0.35;0.35;;;;;;;;;;1772939;80;26791;-50
2022/05/26 12:21:31;;;;;;;0.40;0.40;;;;;;;;;;1788810;78;26356;-54
2022/05/26 12:24:00;;;;;;;0.55;0.50;;;;;;;;;;1794618;80;26317;-46
2022/05/26 12:26:29;;;;;;;0.62;0.50;;;;;;;;;;1795906;78;26360;-49
2022/05/26 12:28:58;;;;;;;0.50;0.50;;;;;;;;;;1795059;80;26235;-43
2022/05/26 12:31:25;;;;;;;0.40;0.40;;;;;;;;;;1793851;78;26301;-48
2022/05/26 12:34:02;;;;;;;0.40;0.40;;;;;;;;;;1793626;78;26329;-51
2022/05/26 12:36:47;;;;;;;0.28;0.28;;;;;;;;;;1787071;78;26336;-52
2022/05/26 12:39:28;;;;;;;0.42;0.40;;;;;;;;;;1797481;78;26776;-49
2022/05/26 12:42:12;;;;;;;0.37;0.37;;;;;;;;;;1784935;78;26376;-51
2022/05/26 12:44:59;;;;;;;0.40;0.40;;;;;;;;;;1794437;78;26262;-47
2022/05/26 12:47:44;;;;;;;1.22;0.50;;;;;;;;;;1790581;80;26666;-47
2022/05/26 12:50:13;;;;;;;0.40;0.40;;;;;;;;;;1796436;78;26342;-53
2022/05/26 12:52:42;;;;;;;0.33;0.33;;;;;;;;;;1805874;78;26227;-48
2022/05/26 12:55:26;;;;;;;0.45;0.45;;;;;;;;;;1797608;78;26291;-45
2022/05/26 12:57:55;;;;;;;0.30;0.30;;;;;;;;;;1794932;78;26355;-43
2022/05/26 13:00:33;;;;;;;0.30;0.30;;;;;;;;;;1785587;78;26317;-51
2022/05/26 13:03:02;;;;;;;0.47;0.42;;;;;;;;;;1796773;78;26782;-46
2022/05/26 13:05:32;;;;;;;0.75;0.40;;;;;;;;;;1796887;78;26309;-48
2022/05/26 13:08:00;;;;;;;0.28;0.28;;;;;;;;;;1793277;78;26305;-48
2022/05/26 13:10:32;;;;;;;0.33;0.33;;;;;;;;;;1794870;79;26790;-49
2022/05/26 13:13:00;;;;;;;0.30;0.30;;;;;;;;;;1793609;78;26306;-49
2022/05/26 13:15:28;;;;;;;0.42;0.30;;;;;;;;;;1794940;78;26317;-51
2022/05/26 13:17:56;;;;;;;0.33;0.33;;;;;;;;;;1800550;78;26611;-52
2022/05/26 13:20:25;;;;;;;0.30;0.30;;;;;;;;;;1795835;78;26301;-55
2022/05/26 13:22:52;;;;;;;0.30;0.30;;;;;;;;;;1804064;78;26327;-47
2022/05/26 13:25:21;;;;;;;0.30;0.30;;;;;;;;;;1792888;78;26293;-52
2022/05/26 13:27:50;;;;;;;0.30;0.30;;;;;;;;;;1792787;78;26380;-52
2022/05/26 13:33:09;;;;;;;0.90;0.40;;;;;;;;;;1792773;78;26384;-50
2022/05/26 13:35:41;;;;;;;0.45;0.30;;;;;;;;;;1791859;78;26625;-50
2022/05/26 13:38:29;;;;;;;0.40;0.40;;;;;;;;;;1794336;78;26305;-54
2022/05/26 13:40:57;;;;;;;0.50;0.25;;;;;;;;;;1781858;80;26290;-55
2022/05/26 13:43:25;;;;;;;1.50;0.53;;;;;;;;;;1790806;78;27441;-57
2022/05/26 13:45:53;;;;;;;0.40;0.40;;;;;;;;;;1792832;78;26384;-50
2022/05/26 13:48:39;;;;;;;1.20;0.60;;;;;;;;;;1793767;78;26587;-56
2022/05/26 13:51:14;;;;;;;4.12;0.70;;;;;;;;;;1782596;78;26367;-52
2022/05/26 13:53:43;;;;;;;0.57;0.57;;;;;;;;;;1788446;79;26320;-45
2022/05/26 13:56:11;;;;;;;23.83;0.82;;;;;;;;;;1789421;80;26261;-48
2022/05/26 13:58:39;;;;;;;5.50;0.60;;;;;;;;;;1794701;80;26734;-49
2022/05/26 14:01:08;;;;;;;0.60;0.60;;;;;;;;;;1794933;80;26387;-49
2022/05/26 14:03:37;;;;;;;2.40;0.80;;;;;;;;;;1794645;78;25853;-55
2022/05/26 14:06:09;;;;;;;1.17;0.80;;;;;;;;;;1794323;78;26749;-50
2022/05/26 14:08:50;;;;;;;2.47;0.93;;;;;;;;;;1792325;78;26363;-53
2022/05/26 14:11:31;;;;;;;2.27;0.60;;;;;;;;;;1789655;78;26878;-58
2022/05/26 14:14:00;;;;;;;0.60;0.60;;;;;;;;;;1785362;78;26396;-56
2022/05/26 14:16:28;;;;;;;1.45;0.70;;;;;;;;;;1788889;78;26360;-53
2022/05/26 14:18:57;;;;;;;1.92;0.90;;;;;;;;;;1793238;78;26879;-55
2022/05/26 14:21:28;;;;;;;0.90;0.68;;;;;;;;;;1791244;78;26743;-49
2022/05/26 14:24:03;;;;;;;1.70;0.80;;;;;;;;;;1780332;80;26790;-51
2022/05/26 14:26:47;;;;;;;2.33;0.95;;;;;;;;;;1789600;78;26426;-54
2022/05/26 14:29:19;;;;;;;0.93;0.90;;;;;;;;;;1791176;78;26399;-60
2022/05/26 14:31:59;;;;;;;0.90;0.90;;;;;;;;;;1798076;78;26372;-51
2022/05/26 14:34:34;;;;;;;3.05;0.70;;;;;;;;;;1782140;78;26335;-52
2022/05/26 14:37:01;;;;;;;1.30;0.78;;;;;;;;;;1793498;78;26275;-61
2022/05/26 14:39:29;;;;;;;1.77;0.80;;;;;;;;;;1792759;78;26844;-54
2022/05/26 14:41:58;;;;;;;1.27;0.70;;;;;;;;;;1784872;78;26332;-49
2022/05/26 14:44:25;;;;;;;6.08;0.82;;;;;;;;;;1795800;78;27206;-59
2022/05/26 14:46:52;;;;;;;1.95;1.07;;;;;;;;;;1794801;78;26371;-57
2022/05/26 14:49:20;;;;;;;3.83;1.10;;;;;;;;;;1795349;78;26324;-47
2022/05/26 14:51:48;;;;;;;3.92;1.05;;;;;;;;;;1788436;78;26780;-51
2022/05/26 14:57:03;;;;;;;2.35;1.10;;;;;;;;;;1771207;78;26411;-58
2022/05/26 14:59:31;;;;;;;2.15;1.12;;;;;;;;;;1785372;80;26376;-52
2022/05/26 15:01:58;;;;;;;3.05;1.45;;;;;;;;;;1793724;78;26333;-53
2022/05/26 15:04:26;;;;;;;3.80;1.20;;;;;;;;;;1794466;78;26363;-57
2022/05/26 15:06:53;;;;;;;4.78;1.10;;;;;;;;;;1792004;80;26828;-56
2022/05/26 15:09:22;;;;;;;8.83;2.22;;;;;;;;;;1789587;78;26415;-52
2022/05/26 15:11:51;;;;;;;2.05;0.93;;;;;;;;;;1793930;78;26721;-52
2022/05/26 15:14:19;;;;;;;2.67;1.10;;;;;;;;;;1793860;80;26282;-54
2022/05/26 15:16:47;;;;;;;2.58;1.32;;;;;;;;;;1795769;79;26337;-49
2022/05/26 15:19:16;;;;;;;1.32;0.98;;;;;;;;;;1799661;78;26294;-57
2022/05/26 15:21:43;;;;;;;0.90;0.90;;;;;;;;;;1800147;78;26621;-55
2022/05/26 15:24:11;;;;;;;4.33;1.00;;;;;;;;;;1800335;78;26367;-55
2022/05/26 15:26:38;;;;;;;1.00;1.00;;;;;;;;;;1799736;78;26330;-52
2022/05/26 15:29:05;;;;;;;1.90;0.90;;;;;;;;;;1799986;79;26317;-50
2022/05/26 15:31:33;;;;;;;1.15;0.82;;;;;;;;;;1800518;78;26407;-53
2022/05/26 15:34:01;;;;;;;3.92;1.10;;;;;;;;;;1798160;78;26316;-52
2022/05/26 15:36:30;;;;;;;2.15;1.00;;;;;;;;;;1801882;78;26352;-55
2022/05/26 15:39:00;;;;;;;2.72;1.05;;;;;;;;;;1798538;78;26327;-52
2022/05/26 15:41:28;;;;;;;0.80;0.80;;;;;;;;;;1814099;78;26298;-47